Terminal Aerodrome Forecast
Issued by NWS

Home | Current Version | Previous Version | Text Only | Print | Product List | Glossary Off
Versions: 1 2 3 4 5 6 7 8 9 10 11 12 13 14 15 16 17 18 19

000
FTUS43 KTOP 240658 AAA
TAFMHK
TAF AMD
KMHK 240658Z 2407/2506 32012G20KT P6SM BKN011
     FM240900 30015G23KT P6SM SCT007 BKN010
     FM241500 30016G24KT P6SM VCSH BKN008
     FM241600 31016G24KT P6SM VCSH BKN011
     FM242100 33017G27KT P6SM OVC015
     FM250000 33011KT P6SM OVC035=

USA.gov is the U.S. government's official web portal to all federal, state and local government web resources and services.